createdAt,value
2022-08-23T00:01:58.107Z,97780
2022-08-23T00:13:57.823Z,97780
2022-08-23T00:25:58.071Z,97780
2022-08-23T00:38:32.222Z,97780
2022-08-23T00:49:58.166Z,97790
2022-08-23T01:01:58.416Z,97780
2022-08-23T01:13:58.356Z,97780
2022-08-23T01:25:58.331Z,97790
2022-08-23T01:37:58.615Z,97790
2022-08-23T01:49:58.386Z,97790
2022-08-23T02:01:58.016Z,97790
2022-08-23T02:13:58.021Z,97790
2022-08-23T02:25:58.163Z,97810
2022-08-23T02:37:58.561Z,97820
2022-08-23T02:49:57.946Z,97810
2022-08-23T03:01:58.101Z,97810
2022-08-23T03:13:58.137Z,97820
2022-08-23T03:25:58.420Z,97820
2022-08-23T03:37:58.303Z,97820
2022-08-23T03:49:58.255Z,97820
2022-08-23T04:01:58.670Z,97830
2022-08-23T04:13:58.658Z,97840
2022-08-23T04:25:58.119Z,97850
2022-08-23T04:37:58.172Z,97870
2022-08-23T04:49:58.182Z,97880
2022-08-23T05:01:58.147Z,97900
2022-08-23T05:13:58.145Z,97900
2022-08-23T05:25:58.397Z,97900
2022-08-23T05:37:58.291Z,97910
2022-08-23T05:49:58.297Z,97920
2022-08-23T06:01:58.606Z,97930
2022-08-23T06:13:57.887Z,97920
2022-08-23T06:25:57.835Z,97930
2022-08-23T06:37:57.979Z,97940
2022-08-23T06:49:58.671Z,97950
2022-08-23T07:01:58.094Z,97960
2022-08-23T07:13:57.887Z,97950
2022-08-23T07:25:57.849Z,97960
2022-08-23T07:37:57.895Z,97970
2022-08-23T07:49:57.859Z,97980
2022-08-23T08:01:57.915Z,97990
2022-08-23T08:13:57.855Z,97980
2022-08-23T08:25:57.829Z,97980
2022-08-23T08:37:57.856Z,97990
2022-08-23T08:49:57.841Z,97990
2022-08-23T09:01:57.886Z,97980
2022-08-23T09:13:57.831Z,97980
2022-08-23T09:26:01.269Z,97980
2022-08-23T09:37:57.911Z,97980
2022-08-23T09:49:57.865Z,97980
2022-08-23T10:01:58.007Z,97980
2022-08-23T10:13:57.894Z,97960
2022-08-23T10:25:57.885Z,97950
2022-08-23T10:37:57.962Z,97950
2022-08-23T10:49:57.865Z,97950
2022-08-23T11:01:58.016Z,97930
2022-08-23T11:13:57.857Z,97930
2022-08-23T11:25:57.867Z,97940
2022-08-23T11:38:01.624Z,97930
2022-08-23T11:49:57.851Z,97920
2022-08-23T12:01:57.857Z,97910
2022-08-23T12:13:57.860Z,97900
2022-08-23T12:25:57.836Z,97890
2022-08-23T12:37:57.908Z,97890
2022-08-23T12:49:57.837Z,97880
2022-08-23T13:01:57.991Z,97890
2022-08-23T13:13:57.878Z,97890
2022-08-23T13:25:58.070Z,97870
2022-08-23T13:37:57.874Z,97860
2022-08-23T13:49:57.861Z,97860
2022-08-23T14:01:57.863Z,97860
2022-08-23T14:13:57.840Z,97860
2022-08-23T14:25:58.097Z,97850
2022-08-23T14:38:03.375Z,97860
2022-08-23T14:49:57.879Z,97850
2022-08-23T15:01:57.865Z,97850
2022-08-23T15:14:00.129Z,97860
2022-08-23T15:25:58.116Z,97860
2022-08-23T15:37:57.849Z,97860
2022-08-23T15:49:57.869Z,97850
2022-08-23T16:01:57.917Z,97850
2022-08-23T16:13:57.863Z,97850
2022-08-23T16:26:01.034Z,97850
2022-08-23T16:37:58.450Z,97860
2022-08-23T16:49:57.870Z,97860
2022-08-23T17:01:57.935Z,97860
2022-08-23T17:13:57.819Z,97860
2022-08-23T17:25:57.909Z,97860
2022-08-23T17:37:57.852Z,97880
2022-08-23T17:49:57.858Z,97880
2022-08-23T18:01:57.837Z,97910
2022-08-23T18:13:57.878Z,97920
2022-08-23T18:25:57.907Z,97920
2022-08-23T18:37:57.858Z,97940
2022-08-23T18:49:57.856Z,97950
2022-08-23T19:01:58.020Z,97960
2022-08-23T19:13:57.839Z,97970
2022-08-23T19:25:57.926Z,97980
2022-08-23T19:37:57.836Z,97990
2022-08-23T19:49:57.869Z,98000
2022-08-23T20:01:57.921Z,98010
2022-08-23T20:13:57.857Z,98020
2022-08-23T20:25:58.039Z,98030
2022-08-23T20:37:57.960Z,98040
2022-08-23T20:49:57.892Z,98040
2022-08-23T21:01:57.959Z,98040
2022-08-23T21:13:57.890Z,98050
2022-08-23T21:25:57.880Z,98050
2022-08-23T21:37:57.863Z,98060
2022-08-23T21:49:57.876Z,98060
2022-08-23T22:01:57.933Z,98060
2022-08-23T22:13:57.824Z,98060
2022-08-23T22:25:57.909Z,98060
2022-08-23T22:38:13.278Z,98050
2022-08-23T22:49:57.880Z,98060
2022-08-23T23:01:58.019Z,98050
2022-08-23T23:13:57.854Z,98060
2022-08-23T23:25:57.909Z,98060
2022-08-23T23:37:57.861Z,98070
2022-08-23T23:49:57.881Z,98070
